Historyczne dane pomiarowe

Dodano dane terminowe – wersja testowa.

Dane z okresu 1951-2019

Wersja bazy: 1.34 [2019-03-16, lista zmian], aktualizacja planowana na 2019-04-15

Dane meteo z obszaru Polski uzyskane na podstawie danych udostępnionych przez Instytut Meteorologii i Gospodarki Wodnej – Państwowy Instytut Badawczy.

 

Wybierz Datę:    

       

TemperaturaWilgotnośćWiatrCiśnienieOpadyŚniegCzas trwania zjawisk
 Stacja t tx tn tng RH VA  wxwx mslp ppp RRR   cm mm wxwxwxwxwxwxwx
2012-10-10 5.3 11.8 0.5--- 3.3----- 0.0------------
2012-10-09 6.6 15.8 0.0--- 3.7----- 0.9------------
2012-10-08 6.2 9.8 4.5--- 6.7----- 1.2------------
2012-10-07 9.2 14.3 6.0--- 7.3----- 15.9------------
2012-10-06 12.3 23.8 5.5--- 2.0----- 0.0------------
2012-10-05 10.1 17.3 7.0--- 2.3----- 0.0------------
2012-10-04 12.1 21.3 6.0--- 3.3----- 3.0------------
2012-10-03 12.1 15.5 10.0--- 5.3----- 0.3------------
2012-10-02 12.7 17.3 8.5--- 6.0----- 13.5------------
2012-10-01 13.7 23.8 6.0--- 6.0----- 0.0------------
2012-09-30 11.8 17.5 8.5--- 4.0----- 0.0------------
2012-09-29 11.6 21.3 3.0--- 4.7----- 2.5------------
2012-09-28 11.6 18.8 8.5--- 0.0----- 0.0------------
2012-09-27 17.7 24.8 10.0--- 6.0----- 5.0------------
2012-09-26 15.0 24.3 7.0--- 1.3----- 0.0------------
2012-09-25 13.6 20.8 9.0--- 6.3----- 0.0------------
2012-09-24 11.4 22.3 2.5--- 0.0----- 0.0------------
2012-09-23 7.6 16.8 2.5--- 1.0----- 0.0------------
2012-09-22 8.2 15.8 1.0--- 6.0----- 0.0------------
2012-09-21 6.9 14.8 2.5--- 3.0----- 0.0------------
2012-09-20 7.2 9.8 5.9--- 6.7----- 12.7------------
2012-09-19 12.0 22.3 6.5--- 5.7----- 15.0------------
2012-09-18 12.6 23.5 4.5--- 2.0----- 0.0------------
2012-09-17 11.1 22.8 3.0--- 1.7----- 0.0------------
2012-09-16 11.7 16.3 9.0--- 6.0----- 0.0------------
2012-09-15 13.0 16.8 10.4--- 6.7----- 0.0------------
2012-09-14 11.0 12.8 9.5--- 8.0----- 0.5------------
2012-09-13 13.6 19.6 10.0--- 7.3----- 0.0------------
2012-09-12 16.7 27.8 8.0--- 2.0----- 0.0------------
2012-09-11 16.2 29.4 7.5--- 0.0----- 0.0------------
2012-09-10 15.2 27.8 7.0--- 0.0----- 0.0------------
2012-09-09 17.1 23.3 13.9--- 3.0----- 0.0------------
2012-09-08 15.8 20.3 12.4--- 7.3----- 0.4------------
2012-09-07 11.4 20.3 4.0--- 5.0----- 0.0------------
2012-09-06 14.6 18.9 11.1--- 7.0----- 2.0------------
2012-09-05 16.9 25.3 10.4--- 5.7----- 2.0------------
2012-09-04 17.5 23.4 13.9--- 4.3----- 0.0------------
2012-09-03 17.5 24.8 12.9--- 6.0----- 0.0------------
2012-09-02 18.0 23.3 15.4--- 4.3----- 0.0------------
2012-09-01 16.3 19.3 13.9--- 8.0----- 0.0------------
2012-08-31 17.0 27.3 9.5--- 2.7----- 0.0------------
2012-08-30 15.8 27.3 7.5--- 0.7----- 0.0------------
2012-08-29 13.8 23.8 6.0--- 4.7----- 0.0------------
2012-08-28 12.3 23.8 4.0--- 0.0----- 0.0------------
2012-08-27 15.5 19.8 13.5--- 5.3----- 0.4------------
2012-08-26 16.8 23.4 12.4--- 5.3----- 4.7------------
2012-08-25 20.2 28.9 13.9--- 5.7----- 0.0------------
2012-08-24 20.6 30.9 13.9--- 1.7----- 0.0------------
2012-08-23 20.1 28.9 14.4--- 1.0----- 0.1------------
2012-08-22 21.4 30.9 13.9--- 2.0----- 1.4------------
2012-08-21 20.2 27.3 14.4--- 6.3----- 0.0------------
2012-08-20 19.8 32.9 10.0--- 0.0----- 0.0------------
2012-08-19 16.9 28.3 9.0--- 0.0----- 0.0------------
2012-08-18 16.1 24.2 10.0--- 1.0----- 0.0------------
2012-08-17 15.4 19.8 11.4--- 7.7----- 0.0------------
2012-08-16 16.0 22.3 10.4--- 2.7----- 0.0------------
2012-08-15 15.2 17.8 13.4--- 8.0----- 0.0------------
2012-08-14 12.2 14.8 8.0--- 8.0----- 1.5------------
2012-08-13 11.7 15.8 8.5--- 6.3----- 0.0------------
2012-08-12 12.6 16.3 10.4--- 8.0----- 2.4------------
424.7 ms

 

Źródłem pochodzenia danych jest Instytut Meteorologii i Gospodarki Wodnej – Państwowy Instytut Badawczy. Dane Instytutu Meteorologii i Gospodarki Wodnej – Państwowego Instytutu Badawczego zostały przetworzone.

Dane źródłowe można odnaleźć na stronie https://dane.imgw.pl